Ottumwa Regional Airport
KOTM : now visible

Airfield :











YOU CAN JOIN US ON...

 
LOGIN :

Register | Disclaimer

   EN    FR    IT 

 









Legend :    VFR   Marginal VFR   IFR   Intensive IFR   Very Intensive IFR
Visi :
Ceiling :
>= 8 km
>= 3000ft
5 to 8 km
1000 to 3000 ft
1500m to 5 km
500 to 1000 ft
800 to 1500m
200 to 500 ft
< 800m
< 200 ft
Symbols :   Thunderstorms  Fog  Heavy snow  Heavy precipitations  Wind > 20 kt






- Airport Elevation : 845 ft
- IATA code : OTM


KOTM - Ottumwa Regional

CURRENT METAR :
  • 092353Z AUTO 33024G38KT 10SM BKN080 04/M10 A3004 RMK AO2 PK WND 33039/2330 SLP181 T00441100 10111 20044 53020

EXPIRED METARs :
  • 092253Z AUTO 34026G37KT 10SM BKN080 05/M09 A3002 RMK AO2 PK WND 32042/2159 SLP173 T00501089
  • 092153Z AUTO 31021G35KT 10SM SCT070 BKN085 08/M07 A2999 RMK AO2 PK WND 30046/2105 SLP160 T00781072

TAF KOTM
Valid from the 10 at 00:00 until the 11 at 00:00 UTC


092324Z 1000/1024 33018G30KT P6SM SCT100
FM100100 32012G20KT P6SM FEW250
FM100300 32010KT P6SM FEW250
FM101900 27009KT P6SM FEW250
FM102300 24008KT P6SM FEW250



MET'MAP, your aeronautical weather chart ! - Copyright ORBIFLY December 2007 - Disclaimer

ORBIFLY MET'MAP TEAM :

Programming & Development : Alexandra Zaïnal
Concept & original design : Baudouin d'Aumeries
Assistance for programming : Marc-Olivier Méhu
Technical & hardware support : Manuel Goepfert

Contact : metmap@orbifly.com




SOURCES & CREDITS :

   NOAA       Earth
Advisory